createdAt,value
2017-11-06T00:00:37.101Z,17.57
2017-11-06T00:03:04.655Z,18.00
2017-11-06T00:05:32.232Z,18.80
2017-11-06T00:07:59.803Z,22.80
2017-11-06T00:10:27.347Z,15.60
2017-11-06T00:12:54.948Z,20.33
2017-11-06T00:15:22.534Z,22.47
2017-11-06T00:17:50.080Z,17.63
2017-11-06T00:20:17.644Z,20.20
2017-11-06T00:22:45.197Z,19.17
2017-11-06T00:25:13.152Z,19.43
2017-11-06T00:27:40.695Z,17.20
2017-11-06T00:30:08.249Z,19.63
2017-11-06T00:32:35.905Z,18.80
2017-11-06T00:35:03.520Z,22.03
2017-11-06T00:37:31.097Z,17.10
2017-11-06T00:39:58.649Z,21.93
2017-11-06T00:42:26.303Z,18.17
2017-11-06T00:44:53.867Z,21.33
2017-11-06T00:47:21.446Z,17.23
2017-11-06T00:49:49.035Z,20.37
2017-11-06T00:52:16.593Z,20.87
2017-11-06T00:54:44.169Z,19.63
2017-11-06T00:57:11.965Z,18.10
2017-11-06T00:59:39.909Z,14.43
2017-11-06T01:02:07.450Z,19.03
2017-11-06T01:04:35.001Z,24.90
2017-11-06T01:07:02.581Z,18.97
2017-11-06T01:09:30.179Z,18.23
2017-11-06T01:11:57.755Z,18.47
2017-11-06T01:14:25.304Z,18.77
2017-11-06T01:16:52.893Z,17.10
2017-11-06T01:19:20.467Z,19.97
2017-11-06T01:21:48.101Z,17.20
2017-11-06T01:24:15.713Z,19.03
2017-11-06T01:26:43.275Z,16.50
2017-11-06T01:29:10.849Z,14.80
2017-11-06T01:31:38.969Z,12.27
2017-11-06T01:34:06.513Z,14.90
2017-11-06T01:36:34.258Z,13.27
2017-11-06T01:39:01.816Z,12.87
2017-11-06T01:41:29.367Z,10.50
2017-11-06T01:43:56.908Z,12.80
2017-11-06T01:46:24.759Z,15.43
2017-11-06T01:48:52.292Z,13.10
2017-11-06T01:51:19.845Z,11.77
2017-11-06T01:53:47.411Z,10.47
2017-11-06T01:56:14.953Z,14.20
2017-11-06T01:58:42.863Z,10.30
2017-11-06T02:01:10.395Z,8.30
2017-11-06T02:03:37.935Z,8.97
2017-11-06T02:06:05.492Z,10.07
2017-11-06T02:08:33.055Z,9.40
2017-11-06T02:11:00.887Z,8.90
2017-11-06T02:13:28.429Z,11.70
2017-11-06T02:15:55.969Z,11.10
2017-11-06T02:18:23.552Z,13.40
2017-11-06T02:20:51.092Z,10.20
2017-11-06T02:23:18.976Z,10.17
2017-11-06T02:25:46.514Z,11.00
2017-11-06T02:28:14.050Z,9.93
2017-11-06T02:30:41.626Z,10.93
2017-11-06T02:33:09.218Z,13.87
2017-11-06T02:35:36.790Z,10.30
2017-11-06T02:38:04.354Z,10.53
2017-11-06T02:40:31.912Z,10.83
2017-11-06T02:42:59.447Z,10.47
2017-11-06T02:45:27.029Z,13.20
2017-11-06T02:47:54.572Z,12.17
2017-11-06T02:50:22.114Z,7.90
2017-11-06T02:52:49.679Z,8.03
2017-11-06T02:55:17.236Z,6.57
2017-11-06T02:57:44.783Z,7.40
2017-11-06T03:00:12.368Z,7.57
2017-11-06T03:02:39.931Z,8.50
2017-11-06T03:05:07.466Z,7.70
2017-11-06T03:07:35.370Z,9.60
2017-11-06T03:10:02.902Z,6.73
2017-11-06T03:12:30.484Z,10.23
2017-11-06T03:14:58.057Z,10.27
2017-11-06T03:17:25.580Z,8.03
2017-11-06T03:19:53.151Z,7.40
2017-11-06T03:22:20.679Z,6.73
2017-11-06T03:24:48.593Z,9.70
2017-11-06T03:27:16.126Z,9.13
2017-11-06T03:29:43.649Z,9.77
2017-11-06T03:32:11.347Z,11.00
2017-11-06T03:34:39.016Z,7.83
2017-11-06T03:37:06.571Z,9.87
2017-11-06T03:39:34.243Z,9.00
2017-11-06T03:42:01.847Z,7.07
2017-11-06T03:44:29.380Z,8.47
2017-11-06T03:46:56.904Z,8.27
2017-11-06T03:49:24.456Z,7.27
2017-11-06T03:51:52.563Z,6.53
2017-11-06T03:54:20.105Z,9.10
2017-11-06T03:56:47.641Z,8.90
2017-11-06T03:59:15.477Z,7.20
2017-11-06T04:01:43.026Z,5.03
2017-11-06T04:04:10.573Z,9.53
2017-11-06T04:06:38.115Z,9.70
2017-11-06T04:09:05.644Z,8.10
2017-11-06T04:11:33.196Z,8.43
2017-11-06T04:14:00.734Z,12.73
2017-11-06T04:16:28.807Z,8.00
2017-11-06T04:18:57.034Z,7.17
2017-11-06T04:21:24.588Z,8.07
2017-11-06T04:23:52.157Z,9.17
2017-11-06T04:26:19.683Z,7.80
2017-11-06T04:28:47.626Z,16.10
2017-11-06T04:31:15.227Z,7.57
2017-11-06T04:33:44.698Z,8.07
2017-11-06T04:36:12.248Z,12.80
2017-11-06T04:38:39.798Z,12.20
2017-11-06T04:41:07.344Z,9.77
2017-11-06T04:43:34.968Z,8.67
2017-11-06T04:46:02.558Z,10.03
2017-11-06T04:48:30.104Z,8.80
2017-11-06T04:50:57.937Z,9.37
2017-11-06T04:53:25.470Z,8.60
2017-11-06T04:55:53.013Z,11.27
2017-11-06T04:58:20.555Z,11.40
2017-11-06T05:00:48.100Z,11.70
2017-11-06T05:03:16.009Z,10.33
2017-11-06T05:05:43.968Z,7.43
2017-11-06T05:08:11.543Z,8.37
2017-11-06T05:10:39.103Z,10.00
2017-11-06T05:13:06.638Z,9.40
2017-11-06T05:15:34.301Z,12.67
2017-11-06T05:18:01.852Z,10.13
2017-11-06T05:20:29.376Z,15.10
2017-11-06T05:22:57.084Z,12.23
2017-11-06T05:25:24.628Z,11.80
2017-11-06T05:27:52.168Z,12.10
2017-11-06T05:30:20.082Z,10.20
2017-11-06T05:32:47.632Z,12.37
2017-11-06T05:35:15.278Z,12.50
2017-11-06T05:37:42.860Z,11.23
2017-11-06T05:40:10.410Z,13.33
2017-11-06T05:42:37.967Z,13.73
2017-11-06T05:45:05.540Z,14.77
2017-11-06T05:47:33.082Z,13.97
2017-11-06T05:50:00.644Z,12.87
2017-11-06T05:52:28.192Z,15.00
2017-11-06T05:54:55.762Z,11.27
2017-11-06T05:57:23.302Z,12.60
2017-11-06T05:59:50.856Z,11.53
2017-11-06T06:02:18.513Z,10.10
2017-11-06T06:04:46.052Z,11.13
2017-11-06T06:07:13.782Z,8.87
2017-11-06T06:09:41.336Z,10.10
2017-11-06T06:12:09.455Z,10.20
2017-11-06T06:14:37.007Z,9.17
2017-11-06T06:17:04.554Z,11.20
2017-11-06T06:19:32.118Z,12.60
2017-11-06T06:21:59.677Z,11.50
2017-11-06T06:24:27.603Z,13.20
2017-11-06T06:26:55.147Z,12.03
2017-11-06T06:29:22.788Z,10.47
2017-11-06T06:31:50.346Z,13.50
2017-11-06T06:34:17.889Z,13.60
2017-11-06T06:36:45.445Z,13.77
2017-11-06T06:39:12.994Z,16.80
2017-11-06T06:41:40.826Z,17.20
2017-11-06T06:44:08.373Z,14.50
2017-11-06T06:46:35.909Z,16.80
2017-11-06T06:49:03.471Z,15.80
2017-11-06T06:51:31.007Z,15.70
2017-11-06T06:53:58.566Z,23.23
2017-11-06T06:56:26.107Z,11.53
2017-11-06T06:58:53.642Z,14.40
2017-11-06T07:01:21.195Z,14.43
2017-11-06T07:03:48.747Z,12.47
2017-11-06T07:06:16.317Z,12.50
2017-11-06T07:08:43.851Z,13.20
2017-11-06T07:11:11.533Z,12.53
2017-11-06T07:13:39.080Z,14.33
2017-11-06T07:16:06.972Z,13.80
2017-11-06T07:18:34.502Z,14.17
2017-11-06T07:21:02.043Z,14.57
2017-11-06T07:23:29.607Z,14.77
2017-11-06T07:25:57.149Z,20.90
2017-11-06T07:28:25.095Z,23.07
2017-11-06T07:30:52.654Z,42.33
2017-11-06T07:33:20.225Z,35.03
2017-11-06T07:35:47.834Z,26.83
2017-11-06T07:38:15.386Z,31.00
2017-11-06T07:40:43.012Z,41.30
2017-11-06T07:43:10.680Z,28.43
2017-11-06T07:45:38.342Z,30.10
2017-11-06T07:48:05.901Z,31.83
2017-11-06T07:50:33.547Z,36.60
2017-11-06T07:53:01.096Z,31.73
2017-11-06T07:55:28.639Z,27.63
2017-11-06T07:57:56.209Z,24.70
2017-11-06T08:00:23.740Z,31.70
2017-11-06T08:02:51.666Z,31.10
2017-11-06T08:05:19.209Z,32.27
2017-11-06T08:07:46.803Z,30.27
2017-11-06T08:10:14.484Z,31.43
2017-11-06T08:12:42.143Z,27.10
2017-11-06T08:15:09.728Z,29.60
2017-11-06T08:17:37.273Z,28.93
2017-11-06T08:20:04.819Z,28.70
2017-11-06T08:22:32.389Z,30.30
2017-11-06T08:25:00.016Z,34.23
2017-11-06T08:27:27.583Z,32.93
2017-11-06T08:29:55.129Z,31.10
2017-11-06T08:32:22.676Z,36.90
2017-11-06T08:34:50.244Z,29.37
2017-11-06T08:37:17.795Z,31.90
2017-11-06T08:39:45.354Z,34.73
2017-11-06T08:42:13.005Z,26.57
2017-11-06T08:44:40.583Z,21.20
2017-11-06T08:47:08.140Z,27.10
2017-11-06T08:49:35.693Z,23.77
2017-11-06T08:52:03.305Z,26.23
2017-11-06T08:54:30.864Z,27.10
2017-11-06T08:56:58.454Z,25.30
2017-11-06T08:59:26.004Z,22.90
2017-11-06T09:01:53.572Z,26.23
2017-11-06T09:04:21.208Z,22.30
2017-11-06T09:06:48.992Z,21.53
2017-11-06T09:09:16.542Z,25.27
2017-11-06T09:11:44.088Z,20.17
2017-11-06T09:14:11.651Z,25.10
2017-11-06T09:16:39.203Z,21.17
2017-11-06T09:19:06.765Z,25.77
2017-11-06T09:21:34.329Z,25.80
2017-11-06T09:24:01.895Z,22.37
2017-11-06T09:26:29.456Z,22.67
2017-11-06T09:28:57.384Z,21.07
2017-11-06T09:31:24.929Z,23.37
2017-11-06T09:33:52.474Z,18.73
2017-11-06T09:36:20.051Z,22.63
2017-11-06T09:38:47.605Z,17.10
2017-11-06T09:41:15.189Z,19.40
2017-11-06T09:43:42.739Z,17.60
2017-11-06T09:46:10.282Z,18.73
2017-11-06T09:48:37.848Z,18.90
2017-11-06T09:51:05.401Z,19.13
2017-11-06T09:53:33.279Z,15.83
2017-11-06T09:56:00.830Z,19.00
2017-11-06T09:58:28.377Z,19.50
2017-11-06T10:00:55.936Z,18.90
2017-11-06T10:03:23.492Z,17.27
2017-11-06T10:05:51.053Z,17.93
2017-11-06T10:08:18.580Z,19.50
2017-11-06T10:10:46.160Z,16.90
2017-11-06T10:13:13.712Z,22.10
2017-11-06T10:15:41.273Z,14.83
2017-11-06T10:18:08.915Z,20.60
2017-11-06T10:20:36.487Z,21.00
2017-11-06T10:23:04.413Z,12.33
2017-11-06T10:25:32.051Z,14.57
2017-11-06T10:27:59.598Z,20.47
2017-11-06T10:30:27.164Z,14.97
2017-11-06T10:32:54.697Z,16.03
2017-11-06T10:35:22.318Z,13.70
2017-11-06T10:37:49.886Z,18.60
2017-11-06T10:40:17.515Z,13.70
2017-11-06T10:42:45.233Z,12.10
2017-11-06T10:45:12.789Z,13.40
2017-11-06T10:47:40.354Z,13.47
2017-11-06T10:50:07.892Z,12.70
2017-11-06T10:52:35.447Z,11.43
2017-11-06T10:55:03.015Z,12.87
2017-11-06T10:57:30.566Z,13.47
2017-11-06T10:59:58.130Z,13.30
2017-11-06T11:02:25.703Z,13.93
2017-11-06T11:04:53.342Z,16.10
2017-11-06T11:07:20.904Z,13.03
2017-11-06T11:09:48.476Z,17.37
2017-11-06T11:12:16.193Z,21.23
2017-11-06T11:14:43.766Z,16.83
2017-11-06T11:17:11.396Z,14.60
2017-11-06T11:19:38.942Z,13.37
2017-11-06T11:22:06.518Z,14.47
2017-11-06T11:24:34.184Z,11.13
2017-11-06T11:27:02.089Z,13.03
2017-11-06T11:29:29.711Z,13.60
2017-11-06T11:31:57.329Z,13.80
2017-11-06T11:34:24.899Z,13.33
2017-11-06T11:36:52.434Z,12.50
2017-11-06T11:39:20.092Z,11.80
2017-11-06T11:41:47.617Z,13.40
2017-11-06T11:44:15.160Z,12.80
2017-11-06T11:46:42.741Z,13.80
2017-11-06T11:49:10.300Z,10.60
2017-11-06T11:51:37.889Z,10.90
2017-11-06T11:54:05.437Z,11.50
2017-11-06T11:56:33.106Z,13.33
2017-11-06T11:59:00.669Z,10.50
2017-11-06T12:01:28.206Z,12.30
2017-11-06T12:03:55.761Z,11.10
2017-11-06T12:06:23.317Z,12.20
2017-11-06T12:08:50.890Z,9.80
2017-11-06T12:11:18.431Z,9.93
2017-11-06T12:13:45.971Z,10.67
2017-11-06T12:16:13.536Z,10.23
2017-11-06T12:18:41.190Z,11.53
2017-11-06T12:21:08.750Z,12.30
2017-11-06T12:23:36.306Z,11.30
2017-11-06T12:26:03.866Z,14.23
2017-11-06T12:28:31.461Z,11.60
2017-11-06T12:30:59.007Z,8.43
2017-11-06T12:33:26.590Z,10.80
2017-11-06T12:35:54.132Z,9.73
2017-11-06T12:38:21.701Z,12.70
2017-11-06T12:40:49.255Z,9.27
2017-11-06T12:43:16.817Z,7.93
2017-11-06T12:45:44.397Z,16.90
2017-11-06T12:48:11.986Z,10.63
2017-11-06T12:50:39.840Z,18.67
2017-11-06T12:53:07.375Z,9.73
2017-11-06T12:55:34.961Z,37.80
2017-11-06T12:58:02.561Z,19.97
2017-11-06T13:00:30.107Z,15.40
2017-11-06T13:02:59.130Z,15.73
2017-11-06T13:05:26.663Z,14.27
2017-11-06T13:07:54.531Z,11.50
2017-11-06T13:10:22.136Z,18.97
2017-11-06T13:12:49.911Z,14.23
2017-11-06T13:15:17.484Z,12.03
2017-11-06T13:17:45.193Z,20.67
2017-11-06T13:20:12.759Z,14.30
2017-11-06T13:22:40.314Z,12.10
2017-11-06T13:25:07.852Z,10.70
2017-11-06T13:27:35.558Z,17.73
2017-11-06T13:30:03.104Z,10.80
2017-11-06T13:32:30.769Z,11.07
2017-11-06T13:34:58.422Z,14.60
2017-11-06T13:37:25.997Z,10.13
2017-11-06T13:39:53.556Z,16.37
2017-11-06T13:42:21.106Z,10.40
2017-11-06T13:44:48.695Z,11.43
2017-11-06T13:47:16.237Z,13.40
2017-11-06T13:49:43.795Z,11.70
2017-11-06T13:52:11.352Z,11.27
2017-11-06T13:54:38.956Z,9.10
2017-11-06T13:57:06.496Z,13.10
2017-11-06T13:59:34.057Z,20.03
2017-11-06T14:02:01.722Z,9.73
2017-11-06T14:04:29.288Z,9.97
2017-11-06T14:06:56.853Z,8.43
2017-11-06T14:09:24.401Z,10.80
2017-11-06T14:11:51.957Z,13.03
2017-11-06T14:14:19.532Z,11.67
2017-11-06T14:16:47.193Z,12.40
2017-11-06T14:19:14.934Z,12.77
2017-11-06T14:21:42.622Z,17.17
2017-11-06T14:24:10.264Z,13.40
2017-11-06T14:26:37.801Z,16.20
2017-11-06T14:29:05.739Z,19.70
2017-11-06T14:31:33.297Z,37.40
2017-11-06T14:34:00.850Z,57.87
2017-11-06T14:36:28.422Z,84.10
2017-11-06T14:38:56.011Z,70.57
2017-11-06T14:41:23.604Z,38.90
2017-11-06T14:43:51.148Z,40.40
2017-11-06T14:46:19.052Z,17.43
2017-11-06T14:48:46.646Z,17.23
2017-11-06T14:51:14.210Z,16.47
2017-11-06T14:53:41.828Z,15.13
2017-11-06T14:56:09.361Z,16.77
2017-11-06T14:58:36.928Z,11.30
2017-11-06T15:01:04.794Z,10.47
2017-11-06T15:03:32.372Z,10.43
2017-11-06T15:05:59.970Z,12.10
2017-11-06T15:08:27.527Z,20.00
2017-11-06T15:10:55.090Z,11.20
2017-11-06T15:13:22.643Z,9.00
2017-11-06T15:15:50.650Z,11.73
2017-11-06T15:18:18.198Z,12.57
2017-11-06T15:20:45.752Z,11.87
2017-11-06T15:23:13.324Z,12.77
2017-11-06T15:25:40.870Z,13.10
2017-11-06T15:28:08.457Z,8.17
2017-11-06T15:30:35.987Z,11.43
2017-11-06T15:33:03.588Z,10.60
2017-11-06T15:35:31.210Z,13.50
2017-11-06T15:37:59.114Z,16.20
2017-11-06T15:40:26.729Z,14.37
2017-11-06T15:42:54.330Z,12.27
2017-11-06T15:45:21.944Z,14.80
2017-11-06T15:47:49.488Z,11.53
2017-11-06T15:50:17.076Z,13.70
2017-11-06T15:52:44.635Z,13.00
2017-11-06T15:55:12.254Z,18.20
2017-11-06T15:57:39.809Z,13.23
2017-11-06T16:00:07.359Z,17.30
2017-11-06T16:02:34.950Z,15.60
2017-11-06T16:05:03.202Z,14.17
2017-11-06T16:07:30.792Z,16.30
2017-11-06T16:09:58.366Z,26.67
2017-11-06T16:12:26.426Z,16.90
2017-11-06T16:14:54.025Z,13.40
2017-11-06T16:17:21.663Z,20.93
2017-11-06T16:19:49.263Z,16.23
2017-11-06T16:22:16.827Z,16.37
2017-11-06T16:24:44.498Z,24.57
2017-11-06T16:27:12.048Z,19.70
2017-11-06T16:29:39.955Z,21.63
2017-11-06T16:32:07.537Z,28.93
2017-11-06T16:34:35.161Z,17.83
2017-11-06T16:37:02.893Z,23.53
2017-11-06T16:39:30.548Z,17.63
2017-11-06T16:41:58.141Z,15.00
2017-11-06T16:44:25.735Z,18.60
2017-11-06T16:46:53.328Z,18.93
2017-11-06T16:49:20.891Z,16.10
2017-11-06T16:51:48.464Z,13.97
2017-11-06T16:54:16.041Z,20.83
2017-11-06T16:56:43.627Z,13.97
2017-11-06T16:59:11.217Z,18.83
2017-11-06T17:01:38.802Z,14.63
2017-11-06T17:04:06.411Z,18.33
2017-11-06T17:06:33.985Z,18.43
2017-11-06T17:09:01.564Z,18.17
2017-11-06T17:11:29.212Z,18.70
2017-11-06T17:13:56.933Z,21.83
2017-11-06T17:16:24.534Z,16.13
2017-11-06T17:18:52.072Z,18.50
2017-11-06T17:21:19.704Z,20.00
2017-11-06T17:23:47.290Z,19.27
2017-11-06T17:26:15.023Z,17.90
2017-11-06T17:28:42.591Z,18.23
2017-11-06T17:31:10.166Z,18.20
2017-11-06T17:33:37.764Z,21.67
2017-11-06T17:36:05.328Z,20.10
2017-11-06T17:38:32.939Z,23.13
2017-11-06T17:41:00.516Z,21.67
2017-11-06T17:43:28.084Z,21.17
2017-11-06T17:45:55.671Z,20.00
2017-11-06T17:48:23.266Z,22.20
2017-11-06T17:50:51.280Z,19.17
2017-11-06T17:53:18.840Z,21.87
2017-11-06T17:55:46.457Z,17.33
2017-11-06T17:58:14.476Z,39.67
2017-11-06T18:00:42.274Z,23.83
2017-11-06T18:03:09.891Z,20.93
2017-11-06T18:05:37.468Z,21.63
2017-11-06T18:08:05.435Z,25.43
2017-11-06T18:10:33.091Z,26.27
2017-11-06T18:13:00.852Z,22.10
2017-11-06T18:15:28.452Z,22.13
2017-11-06T18:17:56.049Z,22.87
2017-11-06T18:20:23.692Z,22.23
2017-11-06T18:22:51.257Z,26.87
2017-11-06T18:25:19.775Z,22.80
2017-11-06T18:27:47.847Z,23.70
2017-11-06T18:30:15.425Z,25.47
2017-11-06T18:32:43.115Z,29.83
2017-11-06T18:35:10.783Z,25.33
2017-11-06T18:37:38.371Z,27.73
2017-11-06T18:40:05.953Z,28.43
2017-11-06T18:42:33.590Z,23.97
2017-11-06T18:45:01.192Z,29.83
2017-11-06T18:47:29.136Z,28.60
2017-11-06T18:49:56.729Z,24.93
2017-11-06T18:52:24.326Z,27.63
2017-11-06T18:54:51.934Z,25.13
2017-11-06T18:57:19.543Z,25.33
2017-11-06T18:59:47.194Z,23.40
2017-11-06T19:02:14.840Z,24.50
2017-11-06T19:04:42.474Z,26.17
2017-11-06T19:07:10.459Z,27.93
2017-11-06T19:09:38.026Z,26.60
2017-11-06T19:12:05.692Z,27.90
2017-11-06T19:14:33.295Z,27.77
2017-11-06T19:17:00.975Z,24.00
2017-11-06T19:19:29.181Z,34.03
2017-11-06T19:21:56.842Z,29.40
2017-11-06T19:24:24.523Z,32.50
2017-11-06T19:26:52.186Z,25.83
2017-11-06T19:29:19.979Z,24.43
2017-11-06T19:31:47.605Z,28.40
2017-11-06T19:34:15.253Z,31.40
2017-11-06T19:36:42.892Z,29.33
2017-11-06T19:39:11.656Z,31.30
2017-11-06T19:41:39.372Z,29.77
2017-11-06T19:44:07.077Z,30.87
2017-11-06T19:46:34.836Z,24.90
2017-11-06T19:49:04.834Z,31.53
2017-11-06T19:51:33.491Z,33.73
2017-11-06T19:54:01.324Z,30.07
2017-11-06T19:56:29.435Z,28.57
2017-11-06T19:58:57.284Z,33.90
2017-11-06T20:01:25.271Z,31.10
2017-11-06T20:03:53.113Z,34.40
2017-11-06T20:06:20.876Z,32.60
2017-11-06T20:08:49.540Z,30.67
2017-11-06T20:11:17.743Z,33.43
2017-11-06T20:13:45.487Z,32.57
2017-11-06T20:16:13.389Z,29.40
2017-11-06T20:18:41.277Z,30.23
2017-11-06T20:21:09.151Z,30.43
2017-11-06T20:23:37.071Z,29.47
2017-11-06T20:26:04.949Z,28.03
2017-11-06T20:28:32.667Z,29.90
2017-11-06T20:31:00.600Z,26.93
2017-11-06T20:33:28.483Z,31.73
2017-11-06T20:35:56.431Z,27.87
2017-11-06T20:38:24.177Z,30.23
2017-11-06T20:40:51.908Z,27.80
2017-11-06T20:43:19.702Z,24.63
2017-11-06T20:45:48.902Z,43.10
2017-11-06T20:48:16.946Z,34.43
2017-11-06T20:50:45.458Z,30.60
2017-11-06T20:53:13.240Z,25.53
2017-11-06T20:55:41.083Z,27.50
2017-11-06T20:58:09.674Z,34.23
2017-11-06T21:00:38.722Z,29.93
2017-11-06T21:03:06.434Z,29.00
2017-11-06T21:05:34.222Z,32.80
2017-11-06T21:08:01.936Z,28.60
2017-11-06T21:10:29.596Z,31.20
2017-11-06T21:12:57.242Z,29.60
2017-11-06T21:15:25.014Z,41.93
2017-11-06T21:17:52.732Z,32.27
2017-11-06T21:20:20.345Z,55.80
2017-11-06T21:22:47.932Z,59.07
2017-11-06T21:25:15.723Z,29.43
2017-11-06T21:27:43.346Z,31.30
2017-11-06T21:30:16.598Z,26.67
2017-11-06T21:32:56.745Z,35.43
2017-11-06T21:35:24.527Z,39.60
2017-11-06T21:37:52.297Z,37.00
2017-11-06T21:40:19.918Z,32.90
2017-11-06T21:42:47.503Z,35.37
2017-11-06T21:45:15.435Z,27.10
2017-11-06T21:47:43.008Z,39.40
2017-11-06T21:50:10.576Z,27.67
2017-11-06T21:52:38.346Z,28.20
2017-11-06T21:55:05.911Z,51.57
2017-11-06T21:57:33.838Z,39.40
2017-11-06T22:00:01.419Z,26.70
2017-11-06T22:02:28.988Z,38.77
2017-11-06T22:04:56.563Z,40.03
2017-11-06T22:07:24.111Z,50.40
2017-11-06T22:09:51.779Z,31.77
2017-11-06T22:12:19.352Z,33.60
2017-11-06T22:14:46.912Z,27.83
2017-11-06T22:17:14.644Z,27.40
2017-11-06T22:19:42.204Z,28.60
2017-11-06T22:22:09.781Z,36.57
2017-11-06T22:24:37.350Z,31.27
2017-11-06T22:27:04.960Z,31.20
2017-11-06T22:29:32.540Z,28.80
2017-11-06T22:32:00.119Z,26.03
2017-11-06T22:34:27.701Z,28.27
2017-11-06T22:36:55.259Z,29.73
2017-11-06T22:39:24.040Z,32.07
2017-11-06T22:41:51.905Z,30.47
2017-11-06T22:44:19.526Z,30.23
2017-11-06T22:46:47.093Z,25.67
2017-11-06T22:49:14.713Z,25.23
2017-11-06T22:51:42.302Z,27.17
2017-11-06T22:54:09.839Z,30.53
2017-11-06T22:56:37.467Z,31.63
2017-11-06T22:59:05.028Z,27.47
2017-11-06T23:01:32.632Z,26.33
2017-11-06T23:04:00.199Z,27.57
2017-11-06T23:06:27.759Z,28.67
2017-11-06T23:08:55.421Z,26.50
2017-11-06T23:11:22.974Z,30.37
2017-11-06T23:13:50.535Z,26.07
2017-11-06T23:16:18.087Z,27.97
2017-11-06T23:18:45.984Z,27.90
2017-11-06T23:21:13.623Z,25.47
2017-11-06T23:23:41.218Z,29.67
2017-11-06T23:26:08.782Z,27.53
2017-11-06T23:28:36.326Z,29.83
2017-11-06T23:31:03.900Z,24.40
2017-11-06T23:33:31.543Z,25.30
2017-11-06T23:35:59.153Z,32.00
2017-11-06T23:38:26.701Z,27.57
2017-11-06T23:40:54.254Z,29.07
2017-11-06T23:43:21.934Z,30.17
2017-11-06T23:45:49.465Z,26.27
2017-11-06T23:48:17.033Z,31.30
2017-11-06T23:50:44.586Z,26.10
2017-11-06T23:53:12.525Z,24.90
2017-11-06T23:55:40.070Z,30.23
2017-11-06T23:58:07.625Z,26.20
